createdAt,value
2022-09-03T00:01:52.097Z,79.70
2022-09-03T00:04:57.433Z,78.49
2022-09-03T00:07:50.387Z,79.22
2022-09-03T00:10:28.744Z,79.29
2022-09-03T00:13:02.846Z,78.48
2022-09-03T00:15:33.891Z,79.23
2022-09-03T00:18:07.391Z,79.13
2022-09-03T00:20:37.645Z,79.23
2022-09-03T00:23:10.094Z,79.67
2022-09-03T00:26:06.018Z,79.55
2022-09-03T00:28:46.014Z,79.68
2022-09-03T00:31:27.587Z,79.80
2022-09-03T00:34:07.615Z,80.38
2022-09-03T00:36:42.453Z,80.23
2022-09-03T00:39:28.612Z,80.43
2022-09-03T00:41:57.417Z,80.92
2022-09-03T00:44:34.488Z,80.79
2022-09-03T00:47:20.789Z,80.61
2022-09-03T00:50:14.997Z,81.05
2022-09-03T00:53:03.952Z,80.27
2022-09-03T00:55:33.931Z,80.26
2022-09-03T00:58:16.194Z,80.88
2022-09-03T01:00:45.276Z,80.66
2022-09-03T01:03:26.605Z,80.81
2022-09-03T01:06:05.231Z,79.99
2022-09-03T01:08:53.818Z,80.35
2022-09-03T01:11:29.951Z,80.53
2022-09-03T01:14:03.168Z,80.66
2022-09-03T01:16:57.355Z,80.78
2022-09-03T01:19:45.956Z,80.78
2022-09-03T01:22:25.416Z,80.68
2022-09-03T01:25:10.895Z,80.69
2022-09-03T01:27:47.282Z,80.52
2022-09-03T01:30:24.188Z,80.43
2022-09-03T01:33:20.362Z,80.80
2022-09-03T01:35:49.066Z,81.16
2022-09-03T01:38:30.106Z,80.50
2022-09-03T01:41:40.375Z,80.66
2022-09-03T01:44:41.487Z,81.05
2022-09-03T01:47:13.179Z,80.40
2022-09-03T01:49:59.573Z,81.88
2022-09-03T01:52:54.923Z,81.68
2022-09-03T01:55:47.163Z,81.29
2022-09-03T01:58:44.395Z,82.43
2022-09-03T02:01:35.955Z,81.69
2022-09-03T02:04:14.143Z,81.53
2022-09-03T02:06:41.319Z,81.33
2022-09-03T02:09:08.381Z,81.15
2022-09-03T02:11:35.833Z,81.27
2022-09-03T02:14:04.967Z,81.16
2022-09-03T02:16:35.268Z,81.14
2022-09-03T02:19:07.530Z,81.32
2022-09-03T02:21:39.254Z,81.85
2022-09-03T02:24:08.783Z,81.61
2022-09-03T02:26:36.449Z,81.47
2022-09-03T02:29:04.376Z,81.07
2022-09-03T02:31:32.189Z,81.62
2022-09-03T02:33:59.888Z,81.39
2022-09-03T02:36:39.133Z,81.70
2022-09-03T02:39:07.036Z,81.91
2022-09-03T02:41:34.802Z,81.72
2022-09-03T02:44:03.930Z,81.72
2022-09-03T02:46:39.271Z,81.58
2022-09-03T02:49:06.292Z,81.56
2022-09-03T02:51:38.948Z,81.32
2022-09-03T02:54:06.467Z,81.25
2022-09-03T02:56:33.732Z,81.53
2022-09-03T02:59:01.401Z,81.57
2022-09-03T03:01:28.472Z,83.36
2022-09-03T03:03:55.653Z,82.08
2022-09-03T03:06:23.411Z,82.11
2022-09-03T03:08:50.886Z,81.92
2022-09-03T03:11:19.504Z,81.89
2022-09-03T03:13:47.309Z,81.14
2022-09-03T03:16:15.907Z,81.42
2022-09-03T03:18:43.367Z,82.08
2022-09-03T03:21:12.555Z,81.97
2022-09-03T03:23:40.003Z,81.83
2022-09-03T03:26:13.301Z,81.93
2022-09-03T03:28:42.559Z,81.58
2022-09-03T03:31:12.050Z,81.72
2022-09-03T03:33:40.503Z,81.67
2022-09-03T03:36:17.828Z,81.52
2022-09-03T03:38:45.365Z,81.76
2022-09-03T03:41:17.976Z,82.42
2022-09-03T03:43:46.044Z,82.56
2022-09-03T03:46:13.188Z,82.48
2022-09-03T03:48:41.167Z,81.49
2022-09-03T03:51:10.715Z,81.50
2022-09-03T03:53:39.105Z,81.26
2022-09-03T03:56:09.864Z,81.59
2022-09-03T03:58:37.554Z,81.22
2022-09-03T04:01:10.644Z,81.34
2022-09-03T04:03:38.193Z,80.70
2022-09-03T04:06:06.293Z,80.62
2022-09-03T04:08:38.407Z,80.05
2022-09-03T04:11:08.028Z,80.46
2022-09-03T04:13:37.162Z,80.01
2022-09-03T04:16:08.718Z,80.08
2022-09-03T04:18:36.874Z,80.67
2022-09-03T04:21:16.064Z,80.22
2022-09-03T04:23:45.559Z,79.98
2022-09-03T04:26:16.471Z,79.31
2022-09-03T04:28:45.339Z,78.94
2022-09-03T04:31:14.302Z,79.40
2022-09-03T04:33:43.052Z,79.22
2022-09-03T04:36:18.424Z,79.52
2022-09-03T04:38:47.345Z,79.76
2022-09-03T04:41:20.190Z,78.82
2022-09-03T04:43:51.540Z,78.21
2022-09-03T04:46:20.813Z,78.00
2022-09-03T04:48:53.092Z,77.28
2022-09-03T04:51:27.392Z,76.18
2022-09-03T04:54:00.337Z,70.27
2022-09-03T04:56:30.038Z,65.04
2022-09-03T04:59:02.663Z,60.29
2022-09-03T05:01:32.226Z,56.45
2022-09-03T05:04:00.461Z,52.91
2022-09-03T05:06:29.519Z,51.17
2022-09-03T05:08:57.408Z,49.26
2022-09-03T05:11:26.294Z,46.80
2022-09-03T05:13:55.881Z,44.26
2022-09-03T05:16:24.250Z,43.24
2022-09-03T05:18:56.620Z,40.84
2022-09-03T05:21:24.680Z,40.13
2022-09-03T05:23:53.121Z,39.36
2022-09-03T05:26:32.050Z,38.19
2022-09-03T05:29:01.485Z,38.16
2022-09-03T05:31:31.777Z,36.63
2022-09-03T05:34:01.496Z,36.33
2022-09-03T05:36:31.789Z,35.23
2022-09-03T05:38:59.792Z,34.53
2022-09-03T05:41:28.324Z,33.76
2022-09-03T05:43:59.644Z,33.27
2022-09-03T05:46:32.663Z,32.62
2022-09-03T05:49:02.230Z,31.60
2022-09-03T05:51:30.491Z,30.87
2022-09-03T05:53:58.556Z,30.22
2022-09-03T05:56:27.420Z,30.00
2022-09-03T05:58:56.923Z,30.41
2022-09-03T06:01:26.146Z,29.33
2022-09-03T06:04:00.955Z,29.27
2022-09-03T06:06:31.080Z,28.96
2022-09-03T06:09:00.969Z,28.71
2022-09-03T06:11:29.859Z,28.07
2022-09-03T06:13:58.368Z,26.94
2022-09-03T06:16:30.832Z,26.17
2022-09-03T06:19:03.132Z,25.15
2022-09-03T06:21:30.223Z,25.06
2022-09-03T06:23:59.786Z,25.03
2022-09-03T06:26:29.521Z,25.18
2022-09-03T06:28:57.562Z,24.82
2022-09-03T06:31:25.818Z,24.51
2022-09-03T06:33:53.821Z,25.44
2022-09-03T06:36:22.767Z,24.44
2022-09-03T06:38:53.373Z,22.79
2022-09-03T06:41:25.242Z,22.74
2022-09-03T06:44:01.725Z,21.87
2022-09-03T06:46:30.059Z,22.28
2022-09-03T06:48:57.510Z,21.79
2022-09-03T06:51:27.201Z,21.57
2022-09-03T06:53:59.611Z,21.12
2022-09-03T06:56:27.258Z,21.63
2022-09-03T06:58:56.929Z,21.86
2022-09-03T07:01:31.747Z,21.69
2022-09-03T07:04:01.354Z,21.20
2022-09-03T07:06:31.689Z,21.19
2022-09-03T07:08:59.912Z,20.87
2022-09-03T07:11:30.898Z,20.24
2022-09-03T07:13:58.874Z,20.38
2022-09-03T07:16:28.313Z,20.15
2022-09-03T07:18:56.719Z,19.85
2022-09-03T07:21:25.960Z,19.36
2022-09-03T07:23:54.384Z,20.86
2022-09-03T07:26:32.956Z,19.92
2022-09-03T07:29:03.233Z,21.34
2022-09-03T07:31:33.697Z,19.98
2022-09-03T07:34:09.254Z,19.74
2022-09-03T07:36:43.187Z,20.28
2022-09-03T07:39:12.745Z,20.32
2022-09-03T07:41:45.846Z,21.49
2022-09-03T07:44:15.485Z,20.96
2022-09-03T07:46:43.789Z,20.88
2022-09-03T07:49:11.106Z,21.24
2022-09-03T07:51:39.201Z,21.15
2022-09-03T07:54:10.097Z,20.47
2022-09-03T07:56:38.338Z,19.79
2022-09-03T07:59:06.419Z,20.21
2022-09-03T08:01:35.584Z,19.49
2022-09-03T08:04:04.445Z,19.37
2022-09-03T08:06:34.104Z,18.81
2022-09-03T08:09:05.561Z,18.99
2022-09-03T08:11:41.693Z,19.25
2022-09-03T08:14:11.120Z,20.12
2022-09-03T08:16:40.495Z,19.60
2022-09-03T08:19:07.823Z,18.75
2022-09-03T08:21:35.554Z,18.47
2022-09-03T08:24:03.142Z,18.79
2022-09-03T08:26:33.031Z,19.74
2022-09-03T08:29:00.794Z,18.37
2022-09-03T08:31:29.399Z,18.90
2022-09-03T08:33:58.575Z,18.47
2022-09-03T08:36:30.396Z,18.18
2022-09-03T08:38:59.552Z,18.73
2022-09-03T08:41:42.632Z,17.86
2022-09-03T08:44:20.557Z,20.89
2022-09-03T08:46:53.449Z,22.83
2022-09-03T08:49:46.573Z,24.94
2022-09-03T08:52:32.574Z,25.26
2022-09-03T08:55:20.938Z,24.81
2022-09-03T08:58:09.885Z,23.04
2022-09-03T09:00:49.768Z,20.30
2022-09-03T09:03:31.251Z,19.71
2022-09-03T09:06:12.040Z,18.62
2022-09-03T09:08:46.112Z,18.23
2022-09-03T09:11:27.100Z,17.15
2022-09-03T09:14:03.897Z,16.63
2022-09-03T09:16:38.943Z,16.22
2022-09-03T09:19:21.119Z,16.41
2022-09-03T09:22:30.807Z,15.05
2022-09-03T09:25:02.123Z,14.70
2022-09-03T09:27:30.374Z,14.36
2022-09-03T09:30:01.977Z,14.32
2022-09-03T09:32:31.394Z,14.33
2022-09-03T09:34:58.455Z,14.60
2022-09-03T09:37:25.813Z,13.74
2022-09-03T09:39:58.931Z,13.20
2022-09-03T09:42:27.444Z,12.81
2022-09-03T09:44:54.620Z,12.71
2022-09-03T09:47:27.018Z,11.99
2022-09-03T09:49:58.920Z,12.82
2022-09-03T09:52:28.795Z,12.45
2022-09-03T09:55:17.792Z,12.47
2022-09-03T09:57:45.107Z,12.91
2022-09-03T10:00:16.743Z,13.96
2022-09-03T10:02:56.620Z,14.33
2022-09-03T10:05:33.877Z,14.74
2022-09-03T10:08:19.125Z,16.08
2022-09-03T10:10:51.156Z,18.12
2022-09-03T10:13:26.824Z,19.13
2022-09-03T10:16:08.178Z,20.73
2022-09-03T10:18:53.160Z,20.06
2022-09-03T10:21:55.193Z,20.71
2022-09-03T10:24:30.978Z,21.70
2022-09-03T10:26:58.567Z,23.07
2022-09-03T10:29:30.390Z,23.48
2022-09-03T10:32:36.911Z,24.66
2022-09-03T10:35:12.795Z,25.10
2022-09-03T10:38:08.317Z,26.52
2022-09-03T10:40:38.468Z,27.65
2022-09-03T10:43:32.701Z,29.49
2022-09-03T10:46:09.475Z,30.37
2022-09-03T10:49:07.496Z,34.54
2022-09-03T10:51:40.637Z,33.43
2022-09-03T10:54:10.546Z,33.13
2022-09-03T10:56:58.184Z,31.25
2022-09-03T11:00:13.033Z,30.78
2022-09-03T11:02:41.441Z,27.52
2022-09-03T11:05:16.374Z,24.18
2022-09-03T11:07:49.470Z,22.82
2022-09-03T11:10:31.271Z,22.73
2022-09-03T11:13:13.209Z,24.71
2022-09-03T11:15:40.314Z,24.30
2022-09-03T11:18:24.624Z,25.76
2022-09-03T11:20:55.308Z,26.52
2022-09-03T11:23:25.877Z,27.74
2022-09-03T11:26:01.517Z,28.38
2022-09-03T11:28:31.826Z,28.32
2022-09-03T11:31:13.831Z,29.02
2022-09-03T11:33:54.694Z,29.39
2022-09-03T11:36:33.635Z,30.42
2022-09-03T11:39:01.146Z,29.25
2022-09-03T11:41:35.816Z,28.21
2022-09-03T11:44:40.642Z,27.65
2022-09-03T11:47:37.815Z,26.31
2022-09-03T11:50:17.020Z,23.55
2022-09-03T11:52:44.028Z,23.06
2022-09-03T11:55:11.165Z,22.06
2022-09-03T11:57:45.679Z,21.69
2022-09-03T12:00:21.714Z,21.59
2022-09-03T12:02:58.971Z,21.37
2022-09-03T12:05:38.304Z,22.23
2022-09-03T12:08:29.939Z,23.52
2022-09-03T12:11:15.510Z,24.45
2022-09-03T12:14:21.012Z,25.05
2022-09-03T12:17:05.597Z,25.41
2022-09-03T12:19:50.768Z,24.72
2022-09-03T12:22:20.047Z,25.68
2022-09-03T12:24:48.267Z,25.76
2022-09-03T12:27:27.172Z,27.31
2022-09-03T12:30:02.760Z,28.41
2022-09-03T12:32:37.954Z,28.87
2022-09-03T12:35:14.331Z,30.32
2022-09-03T12:40:33.250Z,31.35
2022-09-03T12:46:10.159Z,33.69
2022-09-03T12:48:40.448Z,34.21
2022-09-03T12:53:55.046Z,34.35
2022-09-03T12:56:22.868Z,33.34
2022-09-03T12:59:05.709Z,33.86
2022-09-03T13:01:56.084Z,34.33
2022-09-03T13:04:34.069Z,34.55
2022-09-03T13:07:20.835Z,34.38
2022-09-03T13:09:48.204Z,34.85
2022-09-03T13:12:24.623Z,35.01
2022-09-03T13:14:53.331Z,34.90
2022-09-03T13:17:33.094Z,34.96
2022-09-03T13:20:24.437Z,35.41
2022-09-03T13:23:10.912Z,35.60
2022-09-03T13:26:08.900Z,36.23
2022-09-03T13:28:52.331Z,36.54
2022-09-03T13:31:33.354Z,36.79
2022-09-03T13:34:09.764Z,36.65
2022-09-03T13:36:48.044Z,36.73
2022-09-03T13:39:26.632Z,37.02
2022-09-03T13:42:16.298Z,36.97
2022-09-03T13:44:53.331Z,36.42
2022-09-03T13:47:31.617Z,36.32
2022-09-03T13:50:22.247Z,36.47
2022-09-03T13:52:59.914Z,35.99
2022-09-03T13:55:29.834Z,36.09
2022-09-03T13:58:17.102Z,36.20
2022-09-03T14:00:52.467Z,36.14
2022-09-03T14:03:48.913Z,36.20
2022-09-03T14:06:56.876Z,36.26
2022-09-03T14:09:37.087Z,35.84
2022-09-03T14:12:32.087Z,36.07
2022-09-03T14:15:17.373Z,36.94
2022-09-03T14:18:03.103Z,36.94
2022-09-03T14:20:47.847Z,37.14
2022-09-03T14:23:26.940Z,36.96
2022-09-03T14:26:00.932Z,37.06
2022-09-03T14:28:40.520Z,37.13
2022-09-03T14:31:45.675Z,37.03
2022-09-03T14:34:23.582Z,36.88
2022-09-03T14:37:34.939Z,36.96
2022-09-03T14:40:22.543Z,37.76
2022-09-03T14:43:11.079Z,38.07
2022-09-03T14:45:53.245Z,37.94
2022-09-03T14:48:29.241Z,37.76
2022-09-03T14:51:24.225Z,38.49
2022-09-03T14:54:18.997Z,38.94
2022-09-03T14:56:54.719Z,38.52
2022-09-03T14:59:52.642Z,38.43
2022-09-03T15:02:29.125Z,38.96
2022-09-03T15:05:14.332Z,38.61
2022-09-03T15:07:53.225Z,39.03
2022-09-03T15:10:33.010Z,39.33
2022-09-03T15:13:12.203Z,39.55
2022-09-03T15:15:42.380Z,38.93
2022-09-03T15:18:18.532Z,39.54
2022-09-03T15:21:06.834Z,39.79
2022-09-03T15:23:47.293Z,39.94
2022-09-03T15:26:24.907Z,40.57
2022-09-03T15:29:42.186Z,41.33
2022-09-03T15:32:28.604Z,41.49
2022-09-03T15:35:30.269Z,41.59
2022-09-03T15:38:02.064Z,42.14
2022-09-03T15:40:34.985Z,42.73
2022-09-03T15:43:06.986Z,43.28
2022-09-03T15:45:49.511Z,44.24
2022-09-03T15:48:40.231Z,45.21
2022-09-03T15:51:27.170Z,45.78
2022-09-03T15:54:03.531Z,46.68
2022-09-03T15:56:59.107Z,47.90
2022-09-03T15:59:39.974Z,47.94
2022-09-03T16:02:21.064Z,48.71
2022-09-03T16:05:11.338Z,48.41
2022-09-03T16:07:38.326Z,48.95
2022-09-03T16:10:26.184Z,50.01
2022-09-03T16:13:08.004Z,50.24
2022-09-03T16:15:49.121Z,51.55
2022-09-03T16:18:50.032Z,52.75
2022-09-03T16:21:42.569Z,52.35
2022-09-03T16:24:18.721Z,52.49
2022-09-03T16:26:56.836Z,53.80
2022-09-03T16:29:30.993Z,52.81
2022-09-03T16:32:22.336Z,53.01
2022-09-03T16:35:09.029Z,54.45
2022-09-03T16:37:57.253Z,55.17
2022-09-03T16:40:50.305Z,54.35
2022-09-03T16:43:41.111Z,55.75
2022-09-03T16:46:35.258Z,55.81
2022-09-03T16:49:37.380Z,55.65
2022-09-03T16:52:33.523Z,56.17
2022-09-03T16:55:21.525Z,57.17
2022-09-03T16:58:25.849Z,57.05
2022-09-03T17:01:20.278Z,57.26
2022-09-03T17:04:18.468Z,57.39
2022-09-03T17:07:32.081Z,57.98
2022-09-03T17:10:25.678Z,58.04
2022-09-03T17:12:58.757Z,57.31
2022-09-03T17:15:48.621Z,58.39
2022-09-03T17:18:31.045Z,57.63
2022-09-03T17:21:16.050Z,58.86
2022-09-03T17:23:54.878Z,58.23
2022-09-03T17:26:35.998Z,58.27
2022-09-03T17:29:18.325Z,57.46
2022-09-03T17:32:07.709Z,57.06
2022-09-03T17:34:54.161Z,57.07
2022-09-03T17:37:47.836Z,55.72
2022-09-03T17:40:21.056Z,55.17
2022-09-03T17:43:13.101Z,54.89
2022-09-03T17:46:04.541Z,54.70
2022-09-03T17:48:52.776Z,54.74
2022-09-03T17:52:09.780Z,54.71
2022-09-03T17:54:43.406Z,54.66
2022-09-03T17:57:31.821Z,54.42
2022-09-03T18:00:12.779Z,54.17
2022-09-03T18:03:05.873Z,54.66
2022-09-03T18:05:51.542Z,53.88
2022-09-03T18:08:34.109Z,55.01
2022-09-03T18:11:06.896Z,54.30
2022-09-03T18:14:01.208Z,53.84
2022-09-03T18:16:32.496Z,54.42
2022-09-03T18:19:31.499Z,54.44
2022-09-03T18:22:24.368Z,54.48
2022-09-03T18:25:17.367Z,54.91
2022-09-03T18:28:12.916Z,55.31
2022-09-03T18:30:58.664Z,55.30
2022-09-03T18:33:45.166Z,55.45
2022-09-03T18:36:31.669Z,55.73
2022-09-03T18:39:30.780Z,56.33
2022-09-03T18:42:31.612Z,56.68
2022-09-03T18:45:24.331Z,56.71
2022-09-03T18:48:40.111Z,58.87
2022-09-03T18:51:28.422Z,57.65
2022-09-03T18:54:57.213Z,58.08
2022-09-03T18:58:03.336Z,60.52
2022-09-03T19:00:53.115Z,58.95
2022-09-03T19:03:54.607Z,59.63
2022-09-03T19:06:49.131Z,60.21
2022-09-03T19:09:51.499Z,60.43
2022-09-03T19:13:01.918Z,60.95
2022-09-03T19:15:57.541Z,61.28
2022-09-03T19:19:14.368Z,61.90
2022-09-03T19:22:30.278Z,62.29
2022-09-03T19:25:29.872Z,61.72
2022-09-03T19:28:49.254Z,61.44
2022-09-03T19:32:07.095Z,60.90
2022-09-03T19:35:20.708Z,61.41
2022-09-03T19:38:28.260Z,61.26
2022-09-03T19:41:24.540Z,61.11
2022-09-03T19:44:19.365Z,60.48
2022-09-03T19:47:14.289Z,60.55
2022-09-03T19:50:18.583Z,61.15
2022-09-03T19:53:13.013Z,61.11
2022-09-03T19:56:07.724Z,60.82
2022-09-03T19:58:57.241Z,61.21
2022-09-03T20:01:48.833Z,60.77
2022-09-03T20:04:34.804Z,61.22
2022-09-03T20:07:23.508Z,61.16
2022-09-03T20:10:11.063Z,61.36
2022-09-03T20:12:43.467Z,61.85
2022-09-03T20:15:11.025Z,61.57
2022-09-03T20:18:04.264Z,61.90
2022-09-03T20:21:12.569Z,61.85
2022-09-03T20:24:19.829Z,61.38
2022-09-03T20:27:26.308Z,61.97
2022-09-03T20:30:01.840Z,61.90
2022-09-03T20:32:55.952Z,63.38
2022-09-03T20:35:50.184Z,63.09
2022-09-03T20:38:23.113Z,65.10
2022-09-03T20:41:00.769Z,63.91
2022-09-03T20:43:33.684Z,64.27
2022-09-03T20:46:18.880Z,65.72
2022-09-03T20:49:10.756Z,65.14
2022-09-03T20:51:53.323Z,65.21
2022-09-03T20:54:32.703Z,64.87
2022-09-03T20:56:59.791Z,64.64
2022-09-03T20:59:33.963Z,65.44
2022-09-03T21:02:34.972Z,66.01
2022-09-03T21:05:32.809Z,67.20
2022-09-03T21:07:59.823Z,65.93
2022-09-03T21:10:44.491Z,66.95
2022-09-03T21:13:32.933Z,67.43
2022-09-03T21:16:40.935Z,67.79
2022-09-03T21:19:36.312Z,68.03
2022-09-03T21:22:39.627Z,68.24
2022-09-03T21:25:13.139Z,67.76
2022-09-03T21:27:51.415Z,68.47
2022-09-03T21:30:20.280Z,68.16
2022-09-03T21:33:02.826Z,68.91
2022-09-03T21:35:50.371Z,69.50
2022-09-03T21:38:31.316Z,69.86
2022-09-03T21:41:34.386Z,69.71
2022-09-03T21:44:19.259Z,70.17
2022-09-03T21:46:46.156Z,69.59
2022-09-03T21:49:20.474Z,70.26
2022-09-03T21:52:02.933Z,71.12
2022-09-03T21:54:33.856Z,69.83
2022-09-03T21:57:30.254Z,68.88
2022-09-03T22:00:12.323Z,69.04
2022-09-03T22:02:42.170Z,68.27
2022-09-03T22:05:09.651Z,68.64
2022-09-03T22:08:07.500Z,68.37
2022-09-03T22:11:04.807Z,68.75
2022-09-03T22:13:44.106Z,68.39
2022-09-03T22:16:16.768Z,68.96
2022-09-03T22:18:44.293Z,68.68
2022-09-03T22:21:23.626Z,68.48
2022-09-03T22:24:10.439Z,69.99
2022-09-03T22:26:56.725Z,69.63
2022-09-03T22:29:41.842Z,69.50
2022-09-03T22:32:25.207Z,69.58
2022-09-03T22:35:07.536Z,69.81
2022-09-03T22:37:40.863Z,70.13
2022-09-03T22:40:40.135Z,70.16
2022-09-03T22:43:25.287Z,70.32
2022-09-03T22:46:06.410Z,70.40
2022-09-03T22:49:06.553Z,70.57
2022-09-03T22:51:57.146Z,70.97
2022-09-03T22:54:55.065Z,71.06
2022-09-03T22:57:25.647Z,70.80
2022-09-03T23:00:10.322Z,71.85
2022-09-03T23:02:40.315Z,71.58
2022-09-03T23:05:27.862Z,71.69
2022-09-03T23:08:03.317Z,72.37
2022-09-03T23:10:44.462Z,72.75
2022-09-03T23:13:18.927Z,72.88
2022-09-03T23:15:52.091Z,73.31
2022-09-03T23:18:27.209Z,73.51
2022-09-03T23:21:22.304Z,74.00
2022-09-03T23:24:05.809Z,74.39
2022-09-03T23:26:39.198Z,74.53
2022-09-03T23:29:23.755Z,75.06
2022-09-03T23:31:51.366Z,75.40
2022-09-03T23:34:18.416Z,75.34
2022-09-03T23:37:16.102Z,76.20
2022-09-03T23:39:41.671Z,75.66
2022-09-03T23:42:31.290Z,76.50
2022-09-03T23:45:01.255Z,76.47
2022-09-03T23:47:41.971Z,76.45
2022-09-03T23:50:43.372Z,77.07
2022-09-03T23:53:28.826Z,76.96
2022-09-03T23:56:05.417Z,77.13
2022-09-03T23:59:14.009Z,78.48
